Weather at Allegheny General Hospital Emergency Heliport

Public forecast

Using degrees Fahrenheit for public forecast. Weather courtesy of forecast.io.

Closest aviation weather report (METAR) to Allegheny General Hospital Emergency Heliport

Closest report is Allegheny County Airport, 6.6 nm (12.3 km) SSE. Retrieved 2022/01/17 03:53 UTC (13 minutes ago):

KAGC 170353Z 36009G17KT 4SM UP BR FEW010 OVC019 M05/M07 A2939 RMK AO2 UPB42 SLP972 P0002 I1000 T10501067

Closest aviation forecast (TAF) to Allegheny General Hospital Emergency Heliport

Closest forecast is Allegheny County Airport, 6.6 nm (12.3 km) SSE. Retrieved 2022-01-17 00:12 UTC (4 hours ago):

TAF COR KAGC 170010Z 1700/1724 07007KT 1/2SM SN FZFG VV006 FM170100 06009G17KT 1 1/2SM -SN OVC015 FM170600 34007KT 1SM -SN OVC007 FM170800 33008G19KT 2SM -SN OVC007 FM171200 29012G26KT 1SM -SN OVC010 FM171700 28015G29KT 2SM -SHSN OVC015